Time;durP1;ratioP1;P1;durP2;ratioP2;P2;SDS_P1;SDS_P2;PMS_P1;PMS_P2;Temp;Humidity;BMP_temperature;BMP_pressure;BME280_temperature;BME280_humidity;BME280_pressure;Samples;Min_cycle;Max_cycle;Signal;HPM_P1;HPM_P2
2022/05/13 00:01:51;;;;;;;4.90;2.03;;;14.40;99.90;;;15.23;100.00;98384.13;5021636;28;20524;-76
2022/05/13 00:04:22;;;;;;;3.77;1.83;;;14.40;99.90;;;15.25;100.00;98389.19;5018952;28;20442;-76
2022/05/13 00:06:52;;;;;;;8.23;2.07;;;14.40;99.90;;;15.32;100.00;98384.69;5019113;28;20448;-76
2022/05/13 00:09:56;;;;;;;4.13;1.70;;;14.30;99.90;;;15.22;100.00;98394.88;5019409;28;20581;-76
2022/05/13 00:12:13;;;;;;;6.27;2.00;;;14.30;99.90;;;15.16;100.00;98383.34;5018197;28;20516;-76
2022/05/13 00:14:44;;;;;;;4.03;1.90;;;14.30;99.90;;;14.99;100.00;98387.44;5019317;28;20534;-76
2022/05/13 00:17:16;;;;;;;6.17;2.40;;;14.30;99.90;;;15.01;100.00;98393.31;5017510;28;20881;-76
2022/05/13 00:19:46;;;;;;;7.97;2.10;;;14.30;99.90;;;15.02;100.00;98382.56;5020963;28;20469;-76
2022/05/13 00:22:18;;;;;;;7.40;1.87;;;14.20;99.90;;;14.89;100.00;98387.84;5018498;28;20509;-76
2022/05/13 00:24:55;;;;;;;6.00;1.77;;;14.10;99.90;;;14.84;100.00;98384.22;5018883;28;20464;-76
2022/05/13 00:27:24;;;;;;;4.77;1.90;;;14.00;99.90;;;14.87;100.00;98384.63;5017047;28;20553;-76
2022/05/13 00:29:55;;;;;;;4.60;2.00;;;14.10;99.90;;;14.86;100.00;98382.19;5016988;28;20534;-76
2022/05/13 00:32:25;;;;;;;4.27;1.70;;;14.00;99.90;;;14.83;100.00;98379.97;5015932;28;20462;-76
2022/05/13 00:34:54;;;;;;;18.20;1.80;;;13.90;99.90;;;14.86;100.00;98379.56;5017287;28;20496;-76
2022/05/13 00:37:25;;;;;;;6.50;1.93;;;13.90;99.90;;;14.78;100.00;98387.69;5016162;28;20478;-76
2022/05/13 00:39:56;;;;;;;2.40;1.50;;;13.90;99.90;;;14.82;100.00;98384.41;5019052;28;20470;-76
2022/05/13 00:42:26;;;;;;;5.60;1.93;;;13.90;99.90;;;14.82;100.00;98391.53;5016001;28;20466;-76
2022/05/13 00:44:56;;;;;;;4.80;1.80;;;13.90;99.90;;;14.67;100.00;98390.94;5019449;28;20462;-76
2022/05/13 00:47:26;;;;;;;11.43;1.80;;;13.80;99.90;;;14.70;100.00;98387.88;5018405;28;20459;-76
2022/05/13 00:49:59;;;;;;;4.87;2.10;;;13.80;99.90;;;14.68;100.00;98389.94;5018067;28;20576;-76
2022/05/13 00:52:30;;;;;;;3.67;1.77;;;13.80;99.90;;;14.68;100.00;98389.94;5020297;28;20546;-76
2022/05/13 00:55:11;;;;;;;6.90;1.77;;;13.60;99.90;;;14.69;100.00;98391.53;5023009;28;21000;-76
2022/05/13 00:57:41;;;;;;;3.47;2.07;;;13.70;99.90;;;14.69;100.00;98394.16;5020241;28;20457;-76
2022/05/13 01:00:15;;;;;;;8.27;2.43;;;13.70;99.90;;;14.74;100.00;98394.38;5020019;28;20592;-78
2022/05/13 01:02:45;;;;;;;4.30;1.67;;;13.80;99.90;;;14.75;100.00;98393.38;5019694;28;20469;-76
2022/05/13 01:05:18;;;;;;;6.80;2.07;;;13.70;99.90;;;14.75;100.00;98401.25;5021879;28;20458;-76
2022/05/13 01:07:50;;;;;;;6.30;1.80;;;13.80;99.90;;;14.75;100.00;98401.25;5021295;28;20469;-76
2022/05/13 01:10:27;;;;;;;5.73;2.03;;;13.70;99.90;;;14.66;100.00;98391.94;5020619;28;20498;-76
2022/05/13 01:13:00;;;;;;;3.60;1.80;;;13.70;99.90;;;14.48;100.00;98390.75;5021141;28;20523;-76
2022/05/13 01:15:39;;;;;;;3.57;2.60;;;13.60;99.90;;;14.43;100.00;98395.00;5019816;28;20463;-76
2022/05/13 01:18:09;;;;;;;8.00;2.20;;;13.60;99.90;;;14.46;100.00;98391.97;5021564;28;20462;-76
2022/05/13 01:20:48;;;;;;;2.80;2.03;;;13.60;99.90;;;14.43;100.00;98397.63;5021659;28;20528;-76
2022/05/13 01:23:21;;;;;;;4.67;2.00;;;13.60;99.90;;;14.38;100.00;98400.88;5022719;28;21133;-76
2022/05/13 01:26:01;;;;;;;7.00;2.13;;;13.50;99.90;;;14.30;100.00;98395.75;5024653;28;20465;-76
2022/05/13 01:28:36;;;;;;;7.53;1.90;;;13.40;99.90;;;14.30;100.00;98400.25;5024590;28;20462;-76
2022/05/13 01:31:10;;;;;;;4.43;1.60;;;13.40;99.90;;;14.35;100.00;98393.38;5020611;28;21082;-77
2022/05/13 01:33:42;;;;;;;3.07;1.47;;;13.40;99.90;;;14.22;100.00;98395.16;5019268;28;20551;-76
2022/05/13 01:36:12;;;;;;;9.00;2.00;;;13.40;99.90;;;14.16;100.00;98394.13;5019940;28;20467;-76
2022/05/13 01:38:44;;;;;;;4.37;2.17;;;13.20;99.90;;;14.18;100.00;98405.28;5021469;28;20466;-76
2022/05/13 01:41:16;;;;;;;4.50;2.07;;;13.30;99.90;;;14.20;100.00;98397.97;5019603;28;20459;-76
2022/05/13 01:43:48;;;;;;;2.43;1.60;;;13.30;99.90;;;14.12;100.00;98398.19;5020634;28;20462;-76
2022/05/13 01:46:19;;;;;;;3.77;2.00;;;13.20;99.90;;;14.01;100.00;98393.53;5021858;28;21023;-76
2022/05/13 01:48:50;;;;;;;4.07;1.70;;;13.10;99.90;;;13.97;100.00;98393.13;5019039;28;20490;-76
2022/05/13 01:51:23;;;;;;;9.33;1.83;;;13.10;99.90;;;14.00;100.00;98397.16;5019000;28;20470;-76
2022/05/13 01:53:55;;;;;;;4.30;1.70;;;13.20;99.90;;;13.97;100.00;98381.78;5020390;28;20466;-76
2022/05/13 01:56:26;;;;;;;3.63;1.77;;;13.10;99.90;;;13.91;100.00;98383.41;5017925;28;20485;-76
2022/05/13 01:58:56;;;;;;;2.63;1.90;;;13.00;99.90;;;14.00;100.00;98386.63;5019556;28;20462;-76
2022/05/13 02:01:26;;;;;;;3.70;1.60;;;13.00;99.90;;;13.89;100.00;98379.31;5020604;28;20511;-76
2022/05/13 02:03:57;;;;;;;2.10;1.70;;;13.00;99.90;;;13.67;100.00;98383.13;5021371;28;20887;-76
2022/05/13 02:06:29;;;;;;;6.13;1.70;;;13.00;99.90;;;13.63;100.00;98379.28;5020102;28;20589;-76
2022/05/13 02:09:03;;;;;;;7.50;1.73;;;12.90;99.90;;;13.59;100.00;98384.94;5019503;28;20532;-76
2022/05/13 02:11:36;;;;;;;3.80;1.67;;;12.80;99.90;;;13.65;100.00;98387.75;5018727;28;20520;-76
2022/05/13 02:14:08;;;;;;;3.80;1.63;;;12.80;99.90;;;13.68;100.00;98400.50;5021725;28;20542;-76
2022/05/13 02:16:39;;;;;;;2.43;1.80;;;12.80;99.90;;;13.63;100.00;98405.56;5019598;28;20467;-76
2022/05/13 02:19:09;;;;;;;5.73;1.90;;;12.70;99.90;;;13.58;100.00;98409.59;5020525;28;20619;-76
2022/05/13 02:21:39;;;;;;;5.73;1.97;;;12.70;99.90;;;13.49;100.00;98402.91;5017412;28;20474;-76
2022/05/13 02:24:11;;;;;;;7.00;2.10;;;12.60;99.90;;;13.51;100.00;98419.25;5020310;28;20888;-76
2022/05/13 02:26:41;;;;;;;11.10;2.50;;;12.60;99.90;;;13.53;100.00;98406.75;5022063;28;20461;-76
2022/05/13 02:29:12;;;;;;;5.87;2.20;;;12.70;99.90;;;13.50;100.00;98404.50;5024984;28;20540;-76
2022/05/13 02:31:42;;;;;;;4.00;1.83;;;12.60;99.90;;;13.51;100.00;98405.31;5019552;28;20494;-76
2022/05/13 02:34:13;;;;;;;4.47;1.73;;;12.60;99.90;;;13.52;100.00;98412.19;5018864;28;20974;-76
2022/05/13 02:36:43;;;;;;;3.30;1.70;;;12.60;99.90;;;13.39;100.00;98418.22;5020127;28;20481;-76
2022/05/13 02:39:15;;;;;;;9.40;2.40;;;12.50;99.90;;;13.36;100.00;98409.91;5020597;28;20933;-76
2022/05/13 02:41:46;;;;;;;8.07;1.97;;;12.50;99.90;;;13.40;100.00;98411.94;5020708;28;20475;-77
2022/05/13 02:44:16;;;;;;;4.07;1.93;;;12.50;99.90;;;13.37;100.00;98404.44;5020638;28;20521;-76
2022/05/13 02:46:47;;;;;;;6.17;2.03;;;12.50;99.90;;;13.33;100.00;98410.31;5018836;28;20823;-76
2022/05/13 02:49:17;;;;;;;6.40;1.57;;;12.50;99.90;;;13.20;100.00;98403.16;5016716;28;20462;-76
2022/05/13 02:51:49;;;;;;;4.43;1.93;;;12.30;99.90;;;13.16;100.00;98412.41;5017140;28;20473;-76
2022/05/13 02:54:22;;;;;;;3.77;1.80;;;12.30;99.90;;;13.18;100.00;98418.31;5018248;28;20454;-77
2022/05/13 02:56:52;;;;;;;3.00;1.90;;;12.30;99.90;;;13.16;100.00;98414.22;5018178;28;20474;-76
2022/05/13 02:59:23;;;;;;;4.63;2.17;;;12.30;99.90;;;13.13;100.00;98415.44;5017906;28;20552;-77
2022/05/13 03:01:54;;;;;;;5.43;2.17;;;12.30;99.90;;;13.09;100.00;98420.25;5017797;28;20585;-76
2022/05/13 03:04:25;;;;;;;3.00;1.73;;;12.30;99.90;;;13.09;100.00;98427.31;5019490;28;20465;-76
2022/05/13 03:06:56;;;;;;;4.10;1.90;;;12.30;99.90;;;13.10;100.00;98424.53;5018781;28;20791;-77
2022/05/13 03:09:30;;;;;;;4.60;1.97;;;12.30;99.90;;;13.14;100.00;98413.63;5017210;28;20459;-76
2022/05/13 03:12:00;;;;;;;5.07;2.90;;;12.20;99.90;;;13.08;100.00;98410.72;5018702;28;20466;-85
2022/05/13 03:14:32;;;;;;;4.90;2.00;;;12.30;99.90;;;13.02;100.00;98415.94;5017515;28;20528;-77
2022/05/13 03:17:05;;;;;;;5.37;1.93;;;12.10;99.90;;;12.95;100.00;98415.09;5018778;28;20454;-77
2022/05/13 03:19:37;;;;;;;5.97;2.10;;;12.10;99.90;;;13.03;100.00;98414.94;5017500;28;20473;-77
2022/05/13 03:22:08;;;;;;;4.47;1.80;;;12.10;99.90;;;13.00;100.00;98423.22;5018645;28;20478;-85
2022/05/13 03:24:40;;;;;;;5.90;2.33;;;12.10;99.90;;;12.99;100.00;98424.22;5021443;28;20447;-77
2022/05/13 03:27:10;;;;;;;3.93;1.70;;;12.20;99.90;;;12.99;100.00;98417.16;5021035;28;20547;-77
2022/05/13 03:29:40;;;;;;;5.83;2.53;;;12.20;99.90;;;13.01;100.00;98414.34;5023924;28;20471;-77
2022/05/13 03:32:12;;;;;;;15.57;5.40;;;12.20;99.90;;;12.94;100.00;98413.50;5018828;28;20479;-84
2022/05/13 03:34:43;;;;;;;7.80;2.10;;;12.10;99.90;;;12.90;100.00;98410.44;5017472;28;20570;-76
2022/05/13 03:37:13;;;;;;;3.37;1.73;;;11.90;99.90;;;12.89;100.00;98418.50;5020020;28;20466;-76
2022/05/13 03:39:45;;;;;;;3.00;1.43;;;12.00;99.90;;;12.68;100.00;98418.53;5020137;28;20442;-76
2022/05/13 03:42:16;;;;;;;3.57;1.73;;;11.90;99.90;;;12.67;100.00;98419.56;5018612;28;20484;-76
2022/05/13 03:44:46;;;;;;;8.20;2.10;;;11.90;99.90;;;12.69;100.00;98420.19;5020867;28;21369;-76
2022/05/13 03:47:16;;;;;;;3.30;1.73;;;11.80;99.90;;;12.70;100.00;98414.75;5019726;28;20466;-76
2022/05/13 03:49:47;;;;;;;6.80;2.50;;;11.90;99.90;;;12.64;100.00;98420.75;5020142;28;20448;-76
2022/05/13 03:52:17;;;;;;;2.13;1.60;;;11.80;99.90;;;12.60;100.00;98406.38;5017907;28;21856;-76
2022/05/13 03:54:49;;;;;;;4.77;1.80;;;11.80;99.90;;;12.61;100.00;98415.88;5019132;28;20477;-76
2022/05/13 03:57:20;;;;;;;2.97;1.90;;;11.70;99.90;;;12.57;100.00;98410.19;5018778;28;20470;-84
2022/05/13 03:59:51;;;;;;;2.90;2.10;;;11.70;99.90;;;12.44;100.00;98414.53;5017632;28;20466;-76
2022/05/13 04:02:21;;;;;;;4.70;1.70;;;11.70;99.90;;;12.40;100.00;98418.53;5018989;28;20482;-76
2022/05/13 04:10:27;;;;;;;4.87;2.20;;;11.60;99.90;;;12.34;100.00;98416.66;5020200;28;20486;-77
2022/05/13 04:18:33;;;;;;;5.07;2.33;;;11.60;99.90;;;12.34;100.00;98414.06;5020306;28;20438;-85
2022/05/13 04:21:05;;;;;;;7.30;2.40;;;11.50;99.90;;;12.37;100.00;98421.53;5019610;28;20542;-76
2022/05/13 04:23:38;;;;;;;4.60;2.10;;;11.50;99.90;;;12.35;100.00;98419.13;5019897;28;20446;-76
2022/05/13 04:26:12;;;;;;;2.93;1.73;;;11.50;99.90;;;12.30;100.00;98413.63;5019761;28;20509;-76
2022/05/13 04:28:44;;;;;;;3.90;1.60;;;11.40;99.90;;;12.28;100.00;98414.81;5021056;28;20985;-76
2022/05/13 04:31:17;;;;;;;4.27;2.23;;;11.40;99.90;;;12.18;100.00;98417.75;5024594;28;20488;-76
2022/05/13 04:33:48;;;;;;;5.27;2.17;;;11.30;99.90;;;12.11;100.00;98416.88;5025126;28;20442;-76
2022/05/13 04:36:19;;;;;;;4.33;2.10;;;11.20;99.90;;;12.15;100.00;98425.97;5024194;28;20461;-77
2022/05/13 04:38:49;;;;;;;6.90;1.93;;;11.20;99.90;;;12.18;100.00;98424.81;5022899;28;20496;-76
2022/05/13 04:44:10;;;;;;;4.00;1.93;;;11.30;99.90;;;12.24;100.00;98440.59;5024418;28;20446;-77
2022/05/13 04:46:40;;;;;;;6.03;2.20;;;11.30;99.90;;;12.18;100.00;98440.53;5023824;28;20447;-76
2022/05/13 04:49:13;;;;;;;3.67;2.10;;;11.30;99.90;;;12.22;100.00;98447.81;5024853;28;20442;-77
2022/05/13 04:51:56;;;;;;;2.33;1.60;;;11.30;99.90;;;12.22;100.00;98449.66;5018707;28;20505;-77
2022/05/13 04:54:52;;;;;;;7.27;2.30;;;11.30;99.90;;;12.25;100.00;98452.69;5015046;28;20512;-77
2022/05/13 04:58:52;;;;;;;5.23;1.93;;;11.40;99.90;;;12.29;100.00;98464.44;5018382;28;20953;-77
2022/05/13 05:02:21;;;;;;;3.60;1.97;;;11.40;99.90;;;12.32;100.00;98466.66;4922295;29;20958;-76
2022/05/13 05:05:22;;;;;;;3.97;2.17;;;11.50;99.90;;;12.34;100.00;98467.31;4854663;28;20488;-76
2022/05/13 05:12:19;;;;;;;4.40;2.30;;;11.50;99.90;;;12.31;100.00;98483.44;4958372;28;20966;-76
2022/05/13 05:15:02;;;;;;;11.47;2.70;;;11.50;99.90;;;12.31;100.00;98480.81;4954997;28;20576;-76
2022/05/13 05:18:01;;;;;;;9.10;2.13;;;11.50;99.90;;;12.35;100.00;98486.50;5017982;28;21041;-76
2022/05/13 05:20:45;;;;;;;3.40;1.80;;;11.50;99.90;;;12.35;100.00;98476.81;4977060;28;20954;-76
2022/05/13 05:27:01;;;;;;;3.63;2.17;;;11.60;99.90;;;12.39;100.00;98483.28;5019132;28;20612;-77
2022/05/13 05:29:51;;;;;;;4.27;1.90;;;11.60;99.90;;;12.44;100.00;98495.84;5018488;28;20466;-77
2022/05/13 05:32:43;;;;;;;4.90;2.20;;;11.60;99.90;;;12.47;100.00;98506.78;5017669;28;20494;-77
2022/05/13 05:36:08;;;;;;;7.57;2.20;;;11.60;99.90;;;12.57;100.00;98517.75;5018434;28;20512;-76
2022/05/13 05:38:50;;;;;;;2.90;1.93;;;11.70;99.90;;;12.64;100.00;98507.31;5015585;28;20457;-76
2022/05/13 05:41:21;;;;;;;3.47;2.00;;;11.80;99.90;;;12.68;100.00;98511.19;4991340;28;20456;-76
2022/05/13 05:44:26;;;;;;;5.23;2.10;;;11.80;99.90;;;12.80;100.00;98508.88;4981624;28;20455;-76
2022/05/13 05:47:13;;;;;;;6.57;2.93;;;11.90;99.90;;;12.90;100.00;98509.38;4978777;28;20474;-76
2022/05/13 05:49:43;;;;;;;8.90;2.70;;;12.00;99.90;;;12.99;100.00;98518.72;5023693;28;20960;-76
2022/05/13 05:52:21;;;;;;;3.57;2.10;;;12.10;99.90;;;13.05;100.00;98520.59;5027295;28;20484;-77
2022/05/13 05:58:15;;;;;;;12.93;2.10;;;12.20;99.90;;;13.07;100.00;98529.09;5028183;28;20869;-77
2022/05/13 06:00:59;;;;;;;3.70;2.20;;;12.30;99.90;;;13.09;100.00;98525.28;5028572;28;20481;-77
2022/05/13 06:03:35;;;;;;;5.63;2.40;;;12.20;99.90;;;13.12;100.00;98534.59;5030875;28;20449;-77
2022/05/13 06:06:12;;;;;;;3.33;2.00;;;12.20;99.90;;;13.15;100.00;98530.81;5028536;28;20504;-77
2022/05/13 06:12:16;;;;;;;4.20;1.70;;;12.40;99.90;;;13.28;100.00;98526.44;5004799;28;21115;-77
2022/05/13 06:14:54;;;;;;;11.77;2.33;;;12.50;99.90;;;13.36;100.00;98528.91;5028660;28;20948;-77
2022/05/13 06:17:39;;;;;;;6.20;2.23;;;12.50;99.90;;;13.42;100.00;98525.53;5026694;28;20454;-77
2022/05/13 06:20:31;;;;;;;7.50;1.70;;;12.60;99.90;;;13.48;100.00;98530.00;5026616;28;20454;-77
2022/05/13 06:23:08;;;;;;;5.97;2.30;;;12.70;99.90;;;13.50;100.00;98533.22;5023118;28;20853;-77
2022/05/13 06:25:53;;;;;;;;;;;;;;;;;;;;;
2022/05/13 06:28:32;;;;;;;3.87;1.77;;;12.80;99.90;;;13.67;100.00;98533.75;5027017;28;20446;-77
2022/05/13 06:31:09;;;;;;;9.60;2.13;;;12.80;99.90;;;13.72;100.00;98527.91;5026790;28;20532;-78
2022/05/13 06:33:47;;;;;;;3.23;1.40;;;13.00;99.90;;;13.73;100.00;98532.97;5027178;28;20438;-77
2022/05/13 06:36:29;;;;;;;2.83;1.80;;;13.00;99.90;;;13.75;100.00;98530.94;5022051;28;20545;-77
2022/05/13 06:39:14;;;;;;;4.40;1.53;;;13.10;99.50;;;13.77;89.91;98534.22;5020521;28;20498;-77
2022/05/13 06:41:53;;;;;;;10.07;1.50;;;13.10;97.10;;;13.82;89.31;98541.50;4994978;28;20463;-77
2022/05/13 06:44:29;;;;;;;2.97;1.57;;;13.20;96.90;;;13.91;87.91;98537.72;5019014;28;20465;-77
2022/05/13 06:47:15;;;;;;;3.33;1.30;;;13.20;97.00;;;13.98;88.21;98536.72;5020771;28;20967;-77
2022/05/13 06:50:22;;;;;;;3.30;1.70;;;13.30;97.00;;;14.05;85.93;98534.13;5017740;28;20453;-77
2022/05/13 06:52:54;;;;;;;2.93;1.40;;;13.40;96.40;;;14.09;83.91;98528.25;5021356;28;20891;-77
2022/05/13 06:55:46;;;;;;;3.67;1.50;;;13.50;95.90;;;14.15;81.99;98529.31;5020134;28;20446;-77
2022/05/13 06:58:27;;;;;;;6.00;1.90;;;13.50;95.30;;;14.23;81.60;98544.88;5021499;28;20509;-77
2022/05/13 07:01:08;;;;;;;7.83;1.97;;;13.60;95.40;;;14.32;81.05;98533.19;5021808;28;20443;-77
2022/05/13 07:03:45;;;;;;;2.27;1.20;;;13.70;95.40;;;14.35;81.29;98532.81;5020681;28;21052;-77
2022/05/13 07:06:33;;;;;;;4.00;1.43;;;13.70;95.50;;;14.44;80.96;98547.41;5013267;28;20969;-77
2022/05/13 07:09:22;;;;;;;7.43;1.50;;;13.80;95.30;;;14.49;80.28;98534.47;5023256;28;20451;-77
2022/05/13 07:12:21;;;;;;;4.10;1.40;;;13.90;95.30;;;14.54;80.49;98542.56;5018304;28;20501;-77
2022/05/13 07:14:58;;;;;;;5.57;1.50;;;13.90;95.30;;;14.64;78.66;98541.38;5019676;28;20879;-77
2022/05/13 07:17:45;;;;;;;3.60;1.57;;;14.00;94.90;;;14.70;76.22;98535.31;5019652;28;20708;-77
2022/05/13 07:20:35;;;;;;;3.40;1.30;;;14.00;94.00;;;14.75;73.33;98543.44;4961076;28;20458;-77
2022/05/13 07:23:55;;;;;;;5.73;1.37;;;14.10;93.70;;;14.82;72.87;98544.25;4960799;28;20470;-77
2022/05/13 07:26:49;;;;;;;5.10;1.53;;;14.20;93.50;;;14.84;71.39;98539.59;4960415;28;20854;-77
2022/05/13 07:29:37;;;;;;;5.07;1.30;;;14.20;93.00;;;14.87;69.98;98555.78;4957430;28;20460;-77
2022/05/13 07:32:19;;;;;;;2.50;1.37;;;14.20;92.90;;;14.90;69.88;98546.66;4957888;28;20583;-77
2022/05/13 07:35:10;;;;;;;6.03;1.33;;;14.20;92.80;;;14.89;69.24;98548.47;4961526;28;20857;-77
2022/05/13 07:37:45;;;;;;;2.03;1.03;;;14.20;92.70;;;14.98;70.28;98549.09;4964053;28;20495;-77
2022/05/13 07:44:46;;;;;;;5.67;1.40;;;14.40;93.30;;;15.10;71.19;98540.38;4935018;28;20456;-77
2022/05/13 07:47:35;;;;;;;4.80;1.70;;;14.40;93.30;;;15.16;71.66;98537.97;4962216;28;20455;-77
2022/05/13 07:50:30;;;;;;;6.60;1.67;;;14.50;93.40;;;15.18;71.45;98543.81;4962964;28;20449;-77
2022/05/13 07:53:27;;;;;;;3.40;1.30;;;14.50;93.20;;;15.21;71.86;98546.88;5025104;28;20589;-77
2022/05/13 07:56:06;;;;;;;10.33;1.73;;;14.50;93.30;;;15.24;71.41;98543.81;5024483;28;20438;-77
2022/05/13 08:02:00;;;;;;;2.33;1.27;;;14.60;93.40;;;15.33;71.60;98539.16;4979489;28;20468;-77
2022/05/13 08:04:38;;;;;;;2.23;1.17;;;14.70;93.40;;;15.42;72.48;98540.56;5019983;28;20991;-77
2022/05/13 08:07:53;;;;;;;3.00;1.60;;;14.70;93.70;;;15.44;71.69;98536.72;5025538;28;20462;-77
2022/05/13 08:14:10;;;;;;;5.37;1.60;;;14.90;93.70;;;15.54;70.92;98546.88;5025054;28;21067;-77
2022/05/13 08:20:54;;;;;;;3.23;1.40;;;14.90;92.90;;;15.60;70.49;98549.47;4946514;28;20505;-77
2022/05/13 08:24:41;;;;;;;4.50;1.50;;;15.00;93.20;;;15.68;68.64;98551.09;5017976;28;20832;-77
2022/05/13 08:30:52;;;;;;;2.40;1.10;;;15.10;91.60;;;15.76;61.76;98550.06;4933370;28;20628;-77
2022/05/13 08:33:38;;;;;;;4.60;1.40;;;15.20;90.70;;;15.83;62.13;98551.63;4958626;28;20480;-77
2022/05/13 08:37:15;;;;;;;7.43;1.40;;;15.20;90.90;;;15.86;59.82;98553.06;4956837;28;20450;-76
2022/05/13 08:42:49;;;;;;;21.67;1.53;;;15.20;88.90;;;15.89;58.04;98558.75;4851985;29;20446;-77
2022/05/13 08:46:11;;;;;;;2.27;1.07;;;15.20;89.20;;;15.98;58.83;98559.31;4880331;29;20500;-77
2022/05/13 08:49:45;;;;;;;2.33;1.03;;;15.30;90.00;;;16.04;58.65;98551.34;4870826;29;20456;-77
2022/05/13 08:53:31;;;;;;;2.30;1.27;;;15.40;90.10;;;16.08;58.90;98549.94;4876806;29;20488;-77
2022/05/13 08:56:32;;;;;;;5.23;1.30;;;15.40;90.00;;;16.12;58.90;98547.69;4892032;28;20555;-77
2022/05/13 09:03:55;;;;;;;3.07;1.10;;;15.50;90.30;;;16.15;59.29;98567.56;5010572;28;20457;-77
2022/05/13 09:06:52;;;;;;;8.20;1.60;;;15.50;90.10;;;16.14;57.46;98564.09;5004310;28;20967;-77
2022/05/13 09:09:31;;;;;;;3.50;1.43;;;15.60;88.70;;;16.20;57.76;98560.66;5019514;28;20948;-77
2022/05/13 09:13:04;;;;;;;2.70;1.30;;;15.60;89.70;;;16.30;59.92;98570.75;5020217;28;20461;-77
2022/05/13 09:15:59;;;;;;;2.73;1.40;;;15.60;90.30;;;16.29;60.09;98575.22;4981517;28;20828;-77
2022/05/13 09:18:50;;;;;;;4.67;1.20;;;15.60;90.60;;;16.35;60.04;98569.09;5022408;28;20454;-77
2022/05/13 09:21:47;;;;;;;4.03;1.57;;;15.70;90.80;;;16.37;59.85;98571.53;4980024;28;20477;-77
2022/05/13 09:24:25;;;;;;;5.77;1.20;;;15.70;90.50;;;16.32;57.89;98584.53;5028974;28;20446;-77
2022/05/13 09:27:11;;;;;;;2.13;0.97;;;15.70;89.20;;;16.35;57.37;98590.19;5021906;28;20485;-77
2022/05/13 09:30:44;;;;;;;4.13;1.50;;;15.80;89.10;;;16.28;55.81;98586.78;5022713;28;20918;-77
2022/05/13 09:33:46;;;;;;;2.90;1.10;;;15.70;87.30;;;16.32;55.93;98590.63;4957219;28;20502;-77
2022/05/13 09:37:25;;;;;;;7.43;1.50;;;15.70;87.90;;;16.29;55.51;98580.50;4932301;28;20449;-76
2022/05/13 09:40:34;;;;;;;;;;;;;;;;;;;;;
2022/05/13 09:43:42;;;;;;;6.37;1.70;;;15.70;88.10;;;16.37;56.75;98572.34;4942008;28;20452;-77
2022/05/13 09:46:44;;;;;;;3.33;1.30;;;15.70;88.90;;;16.25;55.77;98567.91;5016809;28;20453;-77
2022/05/13 09:49:43;;;;;;;2.93;1.10;;;15.60;87.60;;;16.34;56.96;98562.19;5023343;28;20447;-77
2022/05/13 09:57:36;;;;;;;4.23;1.30;;;15.80;87.70;;;16.36;56.10;98565.44;4980659;28;20661;-77
2022/05/13 10:00:39;;;;;;;5.30;1.03;;;15.80;87.70;;;16.47;56.45;98551.56;4941100;28;20499;-77
2022/05/13 10:03:35;;;;;;;4.17;1.20;;;15.90;88.60;;;16.54;56.56;98554.97;4975017;28;20456;-76
2022/05/13 10:06:23;;;;;;;2.60;1.20;;;15.90;88.70;;;16.48;55.44;98550.56;4980279;28;21226;-77
2022/05/13 10:16:13;;;;;;;4.77;1.30;;;16.00;88.80;;;16.72;56.28;98545.56;5022463;28;20995;-77
2022/05/13 10:19:23;;;;;;;4.10;1.23;;;16.10;88.70;;;16.71;55.59;98547.38;5022082;28;20450;-77
2022/05/13 10:22:37;;;;;;;1.60;1.00;;;16.10;88.00;;;16.84;56.47;98541.19;5018807;28;20481;-77
2022/05/13 10:25:55;;;;;;;3.00;1.53;;;16.20;88.80;;;16.89;55.94;98538.72;5022814;28;20460;-77
2022/05/13 10:29:25;;;;;;;2.00;1.10;;;16.30;88.40;;;16.91;55.54;98518.16;5023405;28;20468;-77
2022/05/13 10:31:57;;;;;;;2.90;1.43;;;16.20;87.70;;;16.99;56.37;98528.47;5022571;28;20477;-77
2022/05/13 10:35:15;;;;;;;1.97;1.30;;;16.40;88.90;;;17.08;56.04;98532.44;5015855;28;20516;-77
2022/05/13 10:38:16;;;;;;;4.67;1.27;;;16.40;88.10;;;17.11;53.05;98537.34;5021140;28;20812;-77
2022/05/13 10:41:29;;;;;;;5.20;1.10;;;16.50;85.90;;;17.21;55.16;98532.38;5019297;28;20970;-77
2022/05/13 10:44:49;;;;;;;4.10;1.20;;;16.60;88.70;;;17.29;54.05;98529.41;4959056;28;20449;-77
2022/05/13 10:47:55;;;;;;;2.13;1.00;;;16.60;87.00;;;17.35;52.56;98523.28;4955369;28;20529;-77
2022/05/13 10:50:45;;;;;;;3.37;1.00;;;16.80;85.40;;;17.41;52.08;98522.41;5019372;28;20470;-77
2022/05/13 10:53:54;;;;;;;3.63;1.10;;;16.80;85.10;;;17.46;51.48;98514.59;5020829;28;20474;-77
2022/05/13 10:56:54;;;;;;;2.60;1.00;;;16.80;84.10;;;17.59;53.29;98514.53;5012098;28;20453;-77
2022/05/13 11:00:34;;;;;;;4.10;1.53;;;16.90;86.40;;;17.67;53.14;98515.25;5021780;28;21118;-76
2022/05/13 11:07:38;;;;;;;5.27;1.50;;;17.00;84.70;;;17.72;52.04;98502.97;4997506;28;20480;-77
2022/05/13 11:14:20;;;;;;;3.93;1.07;;;17.10;86.20;;;17.89;53.35;98497.88;5020626;28;20508;-77
2022/05/13 11:17:45;;;;;;;5.87;1.30;;;17.10;87.00;;;18.00;53.59;98505.06;5020997;28;20453;-76
2022/05/13 11:28:37;;;;;;;4.60;1.20;;;17.50;85.60;;;18.15;51.55;98486.97;5019371;28;20425;-77
2022/05/13 11:43:42;;;;;;;1.80;1.00;;;17.70;84.00;;;18.42;50.21;98490.88;4953523;28;20493;-76
2022/05/13 11:47:17;;;;;;;3.53;1.00;;;17.80;83.90;;;18.47;49.91;98487.50;4956581;28;20461;-76
2022/05/13 11:49:48;;;;;;;2.27;1.30;;;17.70;83.40;;;18.56;50.36;98479.06;4959047;28;20445;-76
2022/05/13 11:53:02;;;;;;;4.13;1.23;;;18.00;84.40;;;18.66;49.33;98485.63;4957884;28;20868;-76
2022/05/13 11:55:51;;;;;;;5.03;1.20;;;18.10;82.90;;;18.73;49.85;98470.44;4947996;28;20478;-76
2022/05/13 11:59:15;;;;;;;2.73;1.10;;;18.10;83.70;;;18.84;50.66;98490.88;4958402;28;20449;-76
2022/05/13 12:09:24;;;;;;;3.37;1.10;;;18.30;84.40;;;19.10;48.88;98485.09;4843001;29;20532;-76
2022/05/13 12:12:49;;;;;;;2.77;1.03;;;18.40;82.90;;;19.10;47.84;98475.31;4870004;29;20525;-76
2022/05/13 12:16:26;;;;;;;1.70;0.97;;;18.40;81.70;;;19.03;47.90;98479.09;4814569;29;20862;-76
2022/05/13 12:19:49;;;;;;;2.50;1.20;;;18.20;82.00;;;19.15;47.83;98479.13;4822101;29;20870;-76
2022/05/13 12:23:13;;;;;;;3.87;1.23;;;18.40;81.90;;;19.21;47.71;98476.34;4864296;29;20554;-76
2022/05/13 12:27:21;;;;;;;1.73;0.90;;;18.50;82.10;;;19.29;47.10;98481.31;4869365;29;20457;-76
2022/05/13 12:30:44;;;;;;;4.00;1.30;;;18.60;81.30;;;19.31;45.34;98470.44;4818701;29;20458;-76
2022/05/13 12:42:36;;;;;;;3.93;1.00;;;18.80;80.40;;;19.56;46.62;98460.41;4823520;29;20602;-76
2022/05/13 12:49:14;;;;;;;2.10;1.07;;;19.00;80.20;;;19.77;46.71;98458.97;4980684;28;20452;-76
2022/05/13 12:52:30;;;;;;;2.03;1.10;;;19.20;81.00;;;19.85;46.26;98466.56;4977962;28;20979;-76
2022/05/13 12:55:52;;;;;;;8.80;1.30;;;19.20;80.40;;;19.98;45.84;98467.09;4976446;28;20990;-76
2022/05/13 13:01:40;;;;;;;5.50;1.37;;;19.40;76.60;;;20.04;44.25;98454.72;4975255;28;20458;-76
2022/05/13 13:04:54;;;;;;;2.33;1.00;;;19.40;77.80;;;20.12;43.80;98464.97;4978742;28;20630;-76
2022/05/13 13:07:48;;;;;;;5.90;0.90;;;19.40;76.60;;;20.10;42.70;98465.19;4978155;28;21058;-76
2022/05/13 13:10:23;;;;;;;4.57;1.13;;;19.50;76.40;;;20.15;43.28;98445.91;4976636;28;20493;-76
2022/05/13 13:17:11;;;;;;;4.83;1.10;;;19.50;77.20;;;20.37;42.18;98460.16;5012760;28;20449;-76
2022/05/13 13:20:21;;;;;;;2.37;1.10;;;19.70;76.10;;;20.54;43.50;98445.03;4989550;28;20476;-76
2022/05/13 13:23:14;;;;;;;2.33;1.10;;;19.90;78.20;;;20.68;42.74;98450.03;4982665;28;20522;-76
2022/05/13 13:26:15;;;;;;;3.10;1.00;;;19.90;76.70;;;20.71;40.91;98445.03;5017042;28;20462;-76
2022/05/13 13:32:39;;;;;;;4.77;1.27;;;20.10;74.00;;;20.84;41.15;98457.19;4982780;28;20485;-76
2022/05/13 13:35:09;;;;;;;3.63;1.10;;;20.10;74.80;;;20.89;41.14;98451.94;5006771;28;21019;-76
2022/05/13 13:38:23;;;;;;;6.27;1.20;;;20.30;74.80;;;20.99;41.50;98452.09;4975113;28;21006;-76
2022/05/13 13:41:49;;;;;;;3.20;1.23;;;20.40;75.30;;;20.80;42.33;98446.22;4975393;28;20436;-76
2022/05/13 13:45:16;;;;;;;4.40;1.10;;;20.30;76.50;;;20.99;42.22;98452.09;4975002;28;21173;-76